Time;durP1;ratioP1;P1;durP2;ratioP2;P2;SDS_P1;SDS_P2;PMS_P1;PMS_P2;Temp;Humidity;BMP_temperature;BMP_pressure;BME280_temperature;BME280_humidity;BME280_pressure;Samples;Min_cycle;Max_cycle;Signal;HPM_P1;HPM_P2
2021/04/04 00:01:30;;;;;;;17.30;8.57;;;;;;;24.11;17.54;98436.13;5097872;28;20043;-83
2021/04/04 00:03:57;;;;;;;21.63;10.85;;;;;;;23.95;17.67;98439.53;5099392;28;20119;-83
2021/04/04 00:06:23;;;;;;;20.50;10.10;;;;;;;23.78;17.85;98435.78;5098790;28;20033;-83
2021/04/04 00:08:49;;;;;;;17.10;9.73;;;;;;;23.60;18.12;98440.06;5098520;28;20073;-83
2021/04/04 00:11:15;;;;;;;18.30;9.57;;;;;;;23.25;18.54;98441.31;5092114;28;20038;-83
2021/04/04 00:13:42;;;;;;;18.15;9.65;;;;;;;23.00;18.63;98452.03;5102033;28;20116;-83
2021/04/04 00:16:08;;;;;;;17.05;8.75;;;;;;;23.00;18.79;98447.22;5096674;28;20024;-83
2021/04/04 00:18:35;;;;;;;20.50;9.10;;;;;;;23.30;18.37;98450.06;5082751;28;20510;-83
2021/04/04 00:21:01;;;;;;;24.25;11.60;;;;;;;23.08;18.60;98445.91;5082847;28;20039;-83
2021/04/04 00:23:27;;;;;;;17.00;9.05;;;;;;;22.86;18.89;98453.00;5101058;28;20506;-83
2021/04/04 00:25:53;;;;;;;16.98;8.60;;;;;;;23.01;18.58;98451.59;5088123;28;20038;-83
2021/04/04 00:28:20;;;;;;;15.05;8.65;;;;;;;23.04;18.54;98450.78;5101969;28;20125;-84
2021/04/04 00:30:46;;;;;;;17.67;8.90;;;;;;;22.85;18.93;98454.19;5099403;28;20114;-83
2021/04/04 00:33:12;;;;;;;19.58;8.90;;;;;;;22.57;18.86;98452.47;5096691;28;20077;-83
2021/04/04 00:35:38;;;;;;;17.63;9.25;;;;;;;22.61;19.09;98456.03;5095591;28;20487;-83
2021/04/04 00:38:04;;;;;;;18.15;9.77;;;;;;;22.70;18.86;98455.56;5080839;28;20024;-83
2021/04/04 00:40:34;;;;;;;17.70;10.25;;;;;;;22.84;18.74;98461.03;5105111;28;20036;-83
2021/04/04 00:43:00;;;;;;;16.08;8.80;;;;;;;22.97;18.45;98455.66;5096975;28;20483;-84
2021/04/04 00:45:30;;;;;;;17.05;8.75;;;;;;;23.23;18.13;98464.16;5106549;28;20034;-84
2021/04/04 00:47:56;;;;;;;17.95;9.07;;;;;;;23.73;17.75;98458.72;5099886;28;20565;-84
2021/04/04 00:50:25;;;;;;;20.70;10.18;;;;;;;23.94;17.45;98452.75;5095592;28;20015;-84
2021/04/04 00:52:55;;;;;;;15.60;8.07;;;;;;;24.01;17.19;98463.09;5092459;28;20084;-83
2021/04/04 00:55:23;;;;;;;19.30;9.13;;;;;;;24.20;17.22;98459.59;5082205;28;20400;-84
2021/04/04 00:57:50;;;;;;;19.80;9.32;;;;;;;24.13;17.11;98461.75;5096639;28;20016;-83
2021/04/04 01:00:21;;;;;;;18.70;8.80;;;;;;;23.97;17.28;98465.16;5090909;28;20089;-83
2021/04/04 01:02:49;;;;;;;;;;;;;;;23.70;17.75;98473.56;5080910;28;20051;-84
2021/04/04 01:05:17;;;;;;;16.85;8.80;;;;;;;24.00;17.14;98462.31;5087772;28;19920;-83
2021/04/04 01:07:46;;;;;;;18.23;9.40;;;;;;;24.04;17.15;98468.63;5100168;28;20107;-83
2021/04/04 01:10:13;;;;;;;17.60;9.70;;;;;;;23.91;17.49;98466.84;5099432;28;20085;-83
2021/04/04 01:12:54;;;;;;;13.25;7.95;;;;;;;23.97;17.12;98474.38;5098776;28;20097;-84
2021/04/04 01:15:25;;;;;;;;;;;;;;;23.90;17.53;98477.28;5099946;28;20098;-84
2021/04/04 01:17:54;;;;;;;15.23;7.43;;;;;;;24.09;17.10;98461.78;5101753;28;20407;-84
2021/04/04 01:20:43;;;;;;;17.42;8.88;;;;;;;23.81;17.35;98467.78;5085644;28;20038;-84
2021/04/04 01:23:40;;;;;;;14.00;6.30;;;;;;;23.77;17.42;98479.06;5100197;28;20510;-83
2021/04/04 01:26:41;;;;;;;12.52;6.25;;;;;;;23.42;17.56;98473.94;5089875;28;20032;-83
2021/04/04 01:29:10;;;;;;;18.38;8.57;;;;;;;23.55;17.68;98480.56;5070565;28;20507;-83
2021/04/04 01:31:37;;;;;;;14.27;7.05;;;;;;;23.68;17.43;98473.19;5083245;28;20484;-83
2021/04/04 01:34:06;;;;;;;26.33;12.23;;;;;;;24.04;17.01;98473.44;5081274;28;20051;-83
2021/04/04 01:36:35;;;;;;;26.50;11.18;;;;;;;24.23;16.87;98469.97;5081658;28;20032;-83
2021/04/04 01:39:05;;;;;;;34.58;14.18;;;;;;;24.40;16.81;98474.50;5062731;28;20039;-83
2021/04/04 01:41:35;;;;;;;22.93;10.40;;;;;;;24.60;16.40;98460.50;5066061;28;20082;-83
2021/04/04 01:44:15;;;;;;;19.02;9.73;;;;;;;24.60;16.38;98469.72;5084213;28;20037;-84
2021/04/04 01:46:45;;;;;;;16.17;7.30;;;;;;;24.85;16.29;98471.34;5084700;28;20165;-83
2021/04/04 01:49:11;;;;;;;47.38;18.25;;;;;;;24.64;16.48;98473.25;5072917;28;20082;-83
2021/04/04 01:51:39;;;;;;;18.45;8.70;;;;;;;24.38;16.91;98471.34;5079891;28;20028;-83
2021/04/04 01:54:07;;;;;;;18.00;8.57;;;;;;;24.05;17.08;98486.28;5058248;28;20040;-83
2021/04/04 01:56:34;;;;;;;15.43;7.40;;;;;;;23.56;17.46;98484.97;5081526;28;20032;-83
2021/04/04 01:59:02;;;;;;;17.75;7.72;;;;;;;23.39;17.85;98483.19;5064816;28;20028;-83
2021/04/04 02:01:30;;;;;;;14.40;7.18;;;;;;;23.50;17.66;98483.06;5081893;28;20115;-83
2021/04/04 02:04:07;;;;;;;13.30;6.10;;;;;;;23.60;17.48;98487.72;5083106;28;20028;-83
2021/04/04 02:06:37;;;;;;;10.63;5.78;;;;;;;23.96;17.10;98484.00;5088315;28;20036;-83
2021/04/04 02:09:11;;;;;;;13.38;6.18;;;;;;;23.90;17.26;98480.06;5078664;28;20037;-83
2021/04/04 02:11:39;;;;;;;14.82;6.82;;;;;;;23.97;17.35;98481.97;5077492;28;20111;-83
2021/04/04 02:14:11;;;;;;;17.00;7.80;;;;;;;24.22;17.01;98484.44;5083236;28;20040;-84
2021/04/04 02:16:43;;;;;;;20.67;10.68;;;;;;;24.19;17.19;98486.09;5087155;28;20395;-83
2021/04/04 02:19:12;;;;;;;36.53;15.27;;;;;;;24.19;17.05;98488.09;5083107;28;20115;-83
2021/04/04 02:21:42;;;;;;;26.98;13.48;;;;;;;24.20;17.29;98496.06;5064432;28;20047;-83
2021/04/04 02:24:09;;;;;;;26.95;10.02;;;;;;;24.44;17.04;98494.09;5080836;28;20371;-83
2021/04/04 02:26:35;;;;;;;22.60;9.90;;;;;;;24.58;16.73;98491.84;5092280;28;20028;-83
2021/04/04 02:29:03;;;;;;;19.33;10.40;;;;;;;24.59;16.69;98498.25;5094372;28;20089;-83
2021/04/04 02:31:35;;;;;;;16.50;8.55;;;;;;;24.60;16.68;98495.00;5091830;28;20105;-83
2021/04/04 02:34:14;;;;;;;16.50;7.55;;;;;;;24.51;16.92;98497.56;5090668;28;20032;-83
2021/04/04 02:36:42;;;;;;;13.07;7.63;;;;;;;24.46;17.00;98497.25;5091974;28;20539;-83
2021/04/04 02:39:15;;;;;;;18.92;9.60;;;;;;;24.62;16.68;98500.97;5089921;28;20498;-83
2021/04/04 02:41:42;;;;;;;16.10;8.70;;;;;;;24.81;16.37;98495.91;5092377;28;20126;-83
2021/04/04 02:44:09;;;;;;;14.23;7.00;;;;;;;24.91;16.54;98501.31;5093007;28;20538;-83
2021/04/04 02:46:39;;;;;;;15.38;7.53;;;;;;;24.77;16.58;98501.56;5092773;28;20056;-83
2021/04/04 02:49:08;;;;;;;13.73;7.35;;;;;;;24.77;16.66;98503.56;5091325;28;20391;-83
2021/04/04 02:51:45;;;;;;;17.40;7.85;;;;;;;24.81;16.66;98499.47;5092071;28;20043;-83
2021/04/04 02:54:15;;;;;;;14.63;8.25;;;;;;;24.93;16.51;98501.66;5088589;28;20031;-83
2021/04/04 02:56:45;;;;;;;19.33;9.20;;;;;;;24.59;16.80;98506.66;5092596;28;20492;-83
2021/04/04 02:59:41;;;;;;;15.00;7.23;;;;;;;24.33;17.20;98507.50;5091218;28;20093;-83
2021/04/04 03:02:09;;;;;;;20.58;8.70;;;;;;;24.21;17.19;98505.28;5092951;28;20315;-83
2021/04/04 03:04:38;;;;;;;15.13;8.15;;;;;;;24.01;17.60;98508.75;5089102;28;20498;-83
2021/04/04 03:07:06;;;;;;;17.42;8.45;;;;;;;23.87;17.52;98511.78;5090754;28;20035;-83
2021/04/04 03:09:33;;;;;;;15.77;7.90;;;;;;;23.96;17.54;98506.44;5093495;28;20532;-83
2021/04/04 03:12:02;;;;;;;17.42;8.85;;;;;;;23.92;17.63;98511.28;5069595;28;20449;-84
2021/04/04 03:14:29;;;;;;;18.85;8.57;;;;;;;23.17;18.34;98507.88;5094782;28;20040;-83
2021/04/04 03:16:55;;;;;;;15.63;8.00;;;;;;;23.20;18.40;98509.81;5105426;28;20042;-83
2021/04/04 03:19:23;;;;;;;16.83;7.75;;;;;;;23.29;18.10;98501.69;5097296;28;20047;-83
2021/04/04 03:21:52;;;;;;;13.65;7.57;;;;;;;23.31;18.14;98515.31;5095899;28;20029;-83
2021/04/04 03:24:20;;;;;;;15.15;8.10;;;;;;;23.31;18.29;98515.31;5098910;28;20032;-83
2021/04/04 03:26:46;;;;;;;15.15;6.78;;;;;;;23.20;18.26;98520.22;5098068;28;20067;-83
2021/04/04 03:29:13;;;;;;;14.30;7.22;;;;;;;22.92;18.69;98512.16;5099560;28;20051;-83
2021/04/04 03:31:40;;;;;;;17.20;7.65;;;;;;;22.90;18.62;98517.34;5087268;28;20081;-83
2021/04/04 03:34:07;;;;;;;12.95;6.85;;;;;;;22.60;19.06;98507.66;5105294;28;20384;-83
2021/04/04 03:36:33;;;;;;;13.40;7.57;;;;;;;22.61;18.93;98514.81;5086268;28;20066;-83
2021/04/04 03:39:01;;;;;;;14.60;8.05;;;;;;;22.54;19.10;98516.88;5089986;28;20039;-83
2021/04/04 03:41:30;;;;;;;16.20;7.97;;;;;;;22.82;18.63;98522.25;5086192;28;20520;-83
2021/04/04 03:43:58;;;;;;;17.08;8.82;;;;;;;23.01;18.53;98518.81;5105379;28;20378;-83
2021/04/04 03:46:31;;;;;;;14.80;8.70;;;;;;;22.98;18.52;98516.88;5076681;28;20113;-83
2021/04/04 03:49:00;;;;;;;17.33;8.52;;;;;;;22.93;18.62;98514.53;5090117;28;20032;-83
2021/04/04 03:51:28;;;;;;;18.05;8.95;;;;;;;22.63;18.95;98520.00;5093962;28;20062;-83
2021/04/04 03:53:56;;;;;;;14.45;7.80;;;;;;;22.08;19.61;98520.00;5101892;28;20044;-83
2021/04/04 03:56:29;;;;;;;16.13;8.55;;;;;;;22.01;19.61;98518.06;5098910;28;20032;-83
2021/04/04 03:59:00;;;;;;;16.55;7.97;;;;;;;22.48;19.06;98518.50;5092901;28;20032;-83
2021/04/04 04:01:27;;;;;;;;;;;;;;;22.39;19.35;98512.59;5090960;28;20036;-83
2021/04/04 04:03:55;;;;;;;13.35;7.60;;;;;;;22.69;18.93;98519.16;5078513;28;20085;-83
2021/04/04 04:06:22;;;;;;;14.48;7.75;;;;;;;22.79;18.78;98511.88;5096020;28;20103;-83
2021/04/04 04:08:50;;;;;;;14.13;7.80;;;;;;;22.97;18.55;98518.06;5086492;28;20043;-84
2021/04/04 04:11:17;;;;;;;16.50;8.30;;;;;;;22.88;18.48;98525.38;5076767;28;20027;-84
2021/04/04 04:13:44;;;;;;;17.70;7.63;;;;;;;22.55;18.95;98522.03;5095318;28;20059;-84
2021/04/04 04:16:12;;;;;;;13.13;8.25;;;;;;;22.65;18.90;98523.19;5091673;28;20093;-84
2021/04/04 04:18:43;;;;;;;17.88;9.18;;;;;;;22.37;19.13;98541.00;5091421;28;20472;-84
2021/04/04 04:21:12;;;;;;;17.48;8.45;;;;;;;22.61;18.91;98536.44;5077846;28;20028;-84
2021/04/04 04:23:39;;;;;;;24.70;9.68;;;;;;;22.44;19.12;98528.94;5090112;28;20088;-84
2021/04/04 04:26:10;;;;;;;17.25;9.60;;;;;;;22.43;19.01;98528.13;5091028;28;20518;-84
2021/04/04 04:28:38;;;;;;;15.63;8.48;;;;;;;22.49;18.96;98529.31;5091069;28;20088;-83
2021/04/04 04:31:13;;;;;;;17.45;8.48;;;;;;;22.37;19.03;98531.78;5091305;28;20047;-84
2021/04/04 04:33:43;;;;;;;18.40;8.65;;;;;;;22.40;19.13;98533.78;5091714;28;20059;-84
2021/04/04 04:36:11;;;;;;;16.88;8.98;;;;;;;22.14;19.43;98537.97;5084592;28;20101;-84
2021/04/04 04:38:39;;;;;;;14.70;8.27;;;;;;;22.62;18.94;98544.41;5091508;28;20032;-83
2021/04/04 04:41:08;;;;;;;16.10;7.80;;;;;;;22.97;18.45;98537.66;5091179;28;20492;-83
2021/04/04 04:43:37;;;;;;;15.07;8.18;;;;;;;23.24;18.40;98543.41;5070958;28;20037;-83
2021/04/04 04:46:03;;;;;;;16.00;8.13;;;;;;;23.72;17.73;98544.03;5079686;28;20036;-84
2021/04/04 04:48:32;;;;;;;15.10;8.05;;;;;;;23.92;17.55;98546.97;5080435;28;20117;-83
2021/04/04 04:50:59;;;;;;;20.75;9.57;;;;;;;23.86;17.56;98545.84;5081005;28;20040;-84
2021/04/04 04:53:25;;;;;;;15.50;8.13;;;;;;;23.72;18.00;98546.03;5079448;28;20038;-84
2021/04/04 04:55:54;;;;;;;15.05;7.85;;;;;;;23.28;18.36;98558.16;5063199;28;20029;-87
2021/04/04 04:58:21;;;;;;;15.13;7.10;;;;;;;23.43;18.18;98551.22;5073602;28;20501;-87
2021/04/04 05:00:51;;;;;;;17.45;8.35;;;;;;;23.73;17.95;98550.44;5078504;28;20062;-88
2021/04/04 05:03:17;;;;;;;17.13;7.43;;;;;;;24.27;17.61;98554.13;5082864;28;20039;-88
2021/04/04 05:05:43;;;;;;;10.77;6.68;;;;;;;24.57;17.22;98549.22;5077219;28;20020;-86
2021/04/04 05:08:10;;;;;;;12.38;6.88;;;;;;;24.65;17.38;98545.06;5069412;28;20039;-85
2021/04/04 05:10:37;;;;;;;14.30;6.95;;;;;;;24.86;17.10;98545.94;5082310;28;20118;-86
2021/04/04 05:13:05;;;;;;;13.93;7.13;;;;;;;25.10;17.08;98541.88;5078824;28;20147;-87
2021/04/04 05:15:32;;;;;;;13.77;7.55;;;;;;;25.31;16.75;98545.09;5080891;28;20028;-91
2021/04/04 05:17:58;;;;;;;12.35;5.93;;;;;;;25.23;16.87;98554.06;5099591;28;20035;-93
2021/04/04 05:20:24;;;;;;;10.93;5.95;;;;;;;25.34;16.70;98555.44;5082490;28;20028;-96
2021/04/04 05:22:50;;;;;;;12.57;6.82;;;;;;;25.47;16.43;98561.25;5092549;28;20032;-93
2021/04/04 05:25:17;;;;;;;15.95;6.30;;;;;;;24.76;17.42;98555.31;5084501;28;20032;-94
2021/04/04 05:27:43;;;;;;;13.32;6.70;;;;;;;24.99;16.88;98561.75;5089265;28;20032;-93
2021/04/04 05:30:12;;;;;;;12.18;6.78;;;;;;;24.71;17.27;98556.59;5095587;28;20393;-95
2021/04/04 05:32:49;;;;;;;11.35;6.25;;;;;;;24.83;17.13;98560.84;5096717;28;20546;-94
2021/04/04 05:35:16;;;;;;;11.98;6.63;;;;;;;25.09;17.09;98557.16;5091118;28;20032;-94
2021/04/04 05:37:44;;;;;;;13.60;6.78;;;;;;;25.40;16.90;98559.38;5096108;28;20025;-94
2021/04/04 05:40:21;;;;;;;14.95;7.90;;;;;;;25.55;16.60;98559.13;5094595;28;20044;-93
2021/04/04 05:42:55;;;;;;;13.27;7.03;;;;;;;25.52;17.05;98565.59;5086100;28;20487;-93
2021/04/04 05:45:34;;;;;;;14.52;7.20;;;;;;;25.60;16.89;98567.06;5088919;28;20458;-93
2021/04/04 05:48:22;;;;;;;16.00;9.15;;;;;;;25.50;16.77;98568.03;5078888;28;20040;-94
2021/04/04 05:51:09;;;;;;;15.27;7.82;;;;;;;25.50;16.70;98573.66;5087520;28;20488;-93
2021/04/04 05:53:50;;;;;;;13.93;8.25;;;;;;;25.58;16.82;98566.69;5079624;28;20445;-94
2021/04/04 05:56:26;;;;;;;12.18;6.60;;;;;;;25.40;16.76;98569.81;5079775;28;20033;-96
2021/04/04 05:59:04;;;;;;;10.98;6.57;;;;;;;24.17;17.47;98571.91;5089568;28;20081;-92
2021/04/04 06:01:33;;;;;;;9.77;5.30;;;;;;;24.17;17.83;98583.13;5077669;28;20036;-90
2021/04/04 06:04:20;;;;;;;10.13;5.38;;;;;;;23.94;17.95;98595.81;5079560;28;20060;-92
2021/04/04 06:07:12;;;;;;;9.48;5.40;;;;;;;23.86;18.19;98593.53;5084611;28;20040;-94
2021/04/04 06:09:58;;;;;;;9.98;5.63;;;;;;;22.69;19.19;98589.13;5084606;28;20080;-93
2021/04/04 06:12:39;;;;;;;14.60;6.50;;;;;;;22.52;19.29;98580.84;5082535;28;20036;-93
2021/04/04 06:15:36;;;;;;;11.05;5.38;;;;;;;23.05;18.99;98586.81;5084219;28;20068;-92
2021/04/04 06:18:20;;;;;;;10.07;5.43;;;;;;;23.31;18.54;98590.94;5078284;28;20032;-92
2021/04/04 06:20:55;;;;;;;10.48;5.53;;;;;;;23.67;18.43;98591.34;5079540;28;20031;-90
2021/04/04 06:23:39;;;;;;;7.50;4.57;;;;;;;23.04;18.54;98590.81;5080390;28;20036;-92
2021/04/04 06:26:37;;;;;;;10.70;5.15;;;;;;;22.00;19.47;98588.38;5089540;28;20032;-90
2021/04/04 06:29:26;;;;;;;9.90;4.90;;;;;;;22.99;18.98;98596.06;5089442;28;20108;-92
2021/04/04 06:32:07;;;;;;;8.80;3.58;;;;;;;22.88;18.47;98587.75;5109392;28;20048;-94
2021/04/04 06:34:36;;;;;;;10.57;4.65;;;;;;;21.91;19.74;98590.84;5088042;28;20182;-95
2021/04/04 06:37:33;;;;;;;10.18;4.93;;;;;;;20.89;20.73;98585.47;5090905;28;20121;-94
2021/04/04 06:40:11;;;;;;;10.00;6.05;;;;;;;21.54;20.49;98588.53;5069608;28;20044;-95
2021/04/04 06:42:56;;;;;;;14.52;6.50;;;;;;;21.61;19.97;98588.53;5082099;28;20071;-95
2021/04/04 06:45:26;;;;;;;11.52;6.35;;;;;;;21.40;20.72;98596.19;5071635;28;20028;-95
2021/04/04 06:48:15;;;;;;;13.30;6.53;;;;;;;20.98;20.84;98592.25;5084789;28;20064;-94
2021/04/04 06:50:49;;;;;;;10.70;6.90;;;;;;;21.70;20.20;98588.91;5093024;28;20082;-94
2021/04/04 06:53:39;;;;;;;9.45;5.75;;;;;;;22.11;19.64;98582.72;5080953;28;20021;-95
2021/04/04 06:56:14;;;;;;;10.45;5.68;;;;;;;22.57;19.19;98592.38;5086269;28;20036;-95
2021/04/04 06:59:14;;;;;;;14.23;7.03;;;;;;;21.36;20.08;98587.81;5082168;28;20033;-95
2021/04/04 07:01:59;;;;;;;12.95;7.22;;;;;;;21.40;20.21;98587.81;5083616;28;20044;-95
2021/04/04 07:04:45;;;;;;;13.48;8.05;;;;;;;21.73;20.03;98598.44;5082689;28;20044;-91
2021/04/04 07:07:17;;;;;;;9.40;5.35;;;;;;;22.54;19.46;98600.81;5083459;28;20028;-90
2021/04/04 07:10:02;;;;;;;8.45;6.22;;;;;;;22.03;19.70;98595.97;5084780;28;20400;-89
2021/04/04 07:12:47;;;;;;;15.52;7.78;;;;;;;23.03;19.17;98594.84;5079044;28;20079;-91
2021/04/04 07:15:40;;;;;;;10.82;5.45;;;;;;;22.58;19.01;98598.78;5068228;28;20115;-95
2021/04/04 07:18:25;;;;;;;10.73;5.47;;;;;;;22.98;18.65;98591.69;5075841;28;20488;-91
2021/04/04 07:21:19;;;;;;;8.02;4.95;;;;;;;23.63;19.01;98604.63;5061363;28;20120;-90
2021/04/04 07:23:57;;;;;;;8.77;4.43;;;;;;;23.51;18.54;98605.16;5080804;28;20127;-95
2021/04/04 07:26:42;;;;;;;5.40;4.38;;;;;;;22.52;18.70;98604.00;5086677;28;20051;-89
2021/04/04 07:29:24;;;;;;;8.52;5.35;;;;;;;22.51;19.33;98615.63;5080740;28;20064;-92
2021/04/04 07:31:59;;;;;;;7.88;4.68;;;;;;;22.48;19.74;98611.66;5082292;28;20107;-88
2021/04/04 07:34:34;;;;;;;7.90;5.13;;;;;;;24.01;18.93;98611.78;5082218;28;20488;-87
2021/04/04 07:37:21;;;;;;;9.10;5.20;;;;;;;25.09;17.95;98608.53;5085287;28;20443;-93
2021/04/04 07:40:14;;;;;;;6.53;4.05;;;;;;;25.74;16.97;98608.94;5080982;28;20040;-90
2021/04/04 07:42:53;;;;;;;6.18;4.00;;;;;;;23.52;18.18;98627.19;5088352;28;20427;-93
2021/04/04 07:45:29;;;;;;;7.90;4.80;;;;;;;22.01;20.01;98621.53;5083891;28;20083;-92
2021/04/04 07:48:20;;;;;;;8.55;5.35;;;;;;;21.50;20.67;98629.69;5079743;28;20047;-92
2021/04/04 07:51:12;;;;;;;11.05;6.07;;;;;;;20.70;20.33;98628.53;5078374;28;20420;-92
2021/04/04 07:54:00;;;;;;;7.15;4.82;;;;;;;22.74;19.08;98621.47;5085728;28;20495;-94
2021/04/04 07:56:52;;;;;;;6.97;5.03;;;;;;;23.43;18.00;98621.28;5084921;28;20115;-93
2021/04/04 07:59:41;;;;;;;7.25;4.68;;;;;;;23.75;17.60;98624.50;5080491;28;20033;-91
2021/04/04 08:02:16;;;;;;;7.32;4.53;;;;;;;24.01;17.43;98631.41;5077988;28;20033;-91
2021/04/04 08:04:45;;;;;;;7.30;3.78;;;;;;;24.30;17.51;98629.03;5075914;28;20078;-91
2021/04/04 08:07:32;;;;;;;6.18;4.22;;;;;;;25.10;16.64;98617.75;5084723;28;20048;-93
2021/04/04 08:10:22;;;;;;;5.78;3.03;;;;;;;25.54;16.55;98616.56;5086034;28;20040;-92
2021/04/04 08:12:50;;;;;;;6.05;3.35;;;;;;;25.59;15.65;98616.06;5085054;28;20107;-92
2021/04/04 08:15:27;;;;;;;8.98;5.65;;;;;;;22.91;18.00;98623.34;5056145;28;20398;-93
2021/04/04 08:17:55;;;;;;;7.05;4.07;;;;;;;21.79;19.50;98622.00;5067325;28;20037;-90
2021/04/04 08:20:28;;;;;;;5.18;2.97;;;;;;;21.36;19.69;98629.72;5060297;28;20029;-93
2021/04/04 08:23:36;;;;;;;5.53;3.60;;;;;;;18.30;22.93;98629.97;5056713;28;20032;-93
2021/04/04 08:26:07;;;;;;;5.90;3.85;;;;;;;18.80;22.50;98647.16;5063540;28;20124;-93
2021/04/04 08:28:52;;;;;;;7.13;3.88;;;;;;;19.61;21.55;98640.16;5047369;28;20496;-92
2021/04/04 08:31:26;;;;;;;5.80;4.00;;;;;;;17.52;25.24;98636.63;5049941;28;20038;-91
2021/04/04 08:34:11;;;;;;;4.75;2.90;;;;;;;18.62;23.37;98645.00;5059199;28;20029;-93
2021/04/04 08:36:45;;;;;;;7.40;3.85;;;;;;;16.85;25.91;98635.59;5052018;28;20037;-92
2021/04/04 08:39:15;;;;;;;6.78;3.05;;;;;;;17.15;26.51;98646.78;5064395;28;20032;-92
2021/04/04 08:41:44;;;;;;;3.85;2.50;;;;;;;18.13;24.36;98635.38;5072006;28;20037;-90
2021/04/04 08:44:21;;;;;;;2.67;2.33;;;;;;;18.69;23.08;98649.06;5059342;28;20025;-89
2021/04/04 08:47:26;;;;;;;3.70;2.38;;;;;;;20.06;22.06;98641.56;5074303;28;20032;-92
2021/04/04 08:49:53;;;;;;;2.15;1.95;;;;;;;18.37;23.07;98643.16;4957329;28;20043;-93
2021/04/04 08:52:35;;;;;;;4.68;2.40;;;;;;;17.96;23.64;98639.53;5050020;28;20063;-91
2021/04/04 08:55:01;;;;;;;3.17;2.38;;;;;;;19.46;22.45;98635.72;5056047;28;20045;-89
2021/04/04 08:57:35;;;;;;;4.47;2.30;;;;;;;19.17;21.14;98636.69;5066478;28;20112;-90
2021/04/04 09:00:08;;;;;;;2.22;1.70;;;;;;;20.18;22.70;98651.53;5063216;28;20049;-91
2021/04/04 09:03:00;;;;;;;5.22;3.53;;;;;;;20.07;21.92;98637.56;5064428;28;20041;-92
2021/04/04 09:05:28;;;;;;;3.80;2.40;;;;;;;20.52;21.55;98636.91;5072009;28;20044;-91
2021/04/04 09:08:02;;;;;;;5.35;3.40;;;;;;;21.13;19.95;98629.34;5068469;28;20488;-90
2021/04/04 09:10:38;;;;;;;3.35;2.47;;;;;;;22.23;18.58;98627.81;5061038;28;20488;-92
2021/04/04 09:13:15;;;;;;;3.78;1.67;;;;;;;22.61;18.95;98623.97;5064319;28;20040;-90
2021/04/04 09:15:54;;;;;;;1.52;1.05;;;;;;;24.33;17.09;98616.97;5065119;28;20490;-92
2021/04/04 09:18:21;;;;;;;3.22;1.48;;;;;;;23.71;16.68;98612.53;5063467;28;20021;-90
2021/04/04 09:20:49;;;;;;;1.15;1.00;;;;;;;22.74;17.59;98607.47;5052443;28;20033;-91
2021/04/04 09:23:18;;;;;;;2.70;1.50;;;;;;;23.77;17.23;98601.66;5067452;28;20397;-92
2021/04/04 09:25:51;;;;;;;1.60;1.20;;;;;;;24.13;16.92;98610.44;5074093;28;20183;-93
2021/04/04 09:28:19;;;;;;;2.72;1.45;;;;;;;24.90;16.30;98602.88;5067698;28;20104;-91
2021/04/04 09:30:46;;;;;;;3.00;1.45;;;;;;;23.72;16.69;98602.09;5053263;28;20056;-96
2021/04/04 09:33:19;;;;;;;4.22;2.28;;;;;;;23.21;19.28;98608.66;5059838;28;20033;-89
2021/04/04 09:35:53;;;;;;;1.63;1.08;;;;;;;25.31;15.98;98592.88;5069532;28;20328;-88
2021/04/04 09:38:23;;;;;;;2.55;1.75;;;;;;;24.52;17.18;98594.63;5072289;28;20490;-90
2021/04/04 09:40:49;;;;;;;1.35;1.13;;;;;;;24.51;16.77;98598.63;5048247;28;20036;-88
2021/04/04 09:43:17;;;;;;;2.47;1.30;;;;;;;23.40;17.28;98602.50;5063155;28;20138;-88
2021/04/04 09:45:43;;;;;;;2.38;1.80;;;;;;;21.60;19.20;98608.50;5070170;28;20156;-92
2021/04/04 09:48:25;;;;;;;1.85;0.93;;;;;;;20.14;19.54;98622.88;5069468;28;20025;-89
2021/04/04 09:51:16;;;;;;;1.75;1.30;;;;;;;20.36;19.01;98610.59;5065281;28;20115;-92
2021/04/04 09:53:44;;;;;;;3.13;1.23;;;;;;;19.54;20.75;98617.06;5061129;28;20032;-90
2021/04/04 09:56:18;;;;;;;4.05;1.80;;;;;;;19.29;21.34;98609.34;5046661;28;20286;-89
2021/04/04 09:58:48;;;;;;;3.53;1.80;;;;;;;20.45;20.35;98600.63;5041710;28;20041;-88
2021/04/04 10:01:17;;;;;;;3.05;1.88;;;;;;;20.18;21.25;98610.53;5058689;28;20033;-88
2021/04/04 10:04:07;;;;;;;1.80;1.70;;;;;;;20.57;19.98;98602.22;5063948;28;20029;-92
2021/04/04 10:06:35;;;;;;;7.47;2.00;;;;;;;23.27;17.74;98593.78;5062469;28;20033;-92
2021/04/04 10:09:12;;;;;;;2.22;1.30;;;;;;;24.56;16.40;98591.75;5060389;28;20037;-89
2021/04/04 10:11:39;;;;;;;3.05;1.38;;;;;;;24.60;16.68;98590.47;5064916;28;20496;-94
2021/04/04 10:14:10;;;;;;;2.38;1.20;;;;;;;24.21;17.78;98593.06;5068875;28;20041;-89
2021/04/04 10:16:36;;;;;;;3.70;1.30;;;;;;;22.34;19.19;98599.75;5070490;28;20377;-92
2021/04/04 10:19:08;;;;;;;2.30;1.35;;;;;;;21.95;20.17;98600.00;5056915;28;20033;-94
2021/04/04 10:21:37;;;;;;;1.98;1.25;;;;;;;22.08;19.55;98609.50;5059741;28;20028;-90
2021/04/04 10:24:36;;;;;;;4.13;1.98;;;;;;;21.67;18.29;98597.28;5060435;28;20054;-92
2021/04/04 10:27:34;;;;;;;3.05;1.33;;;;;;;21.53;18.94;98598.16;5052562;28;20029;-93
2021/04/04 10:30:13;;;;;;;2.58;1.60;;;;;;;21.77;18.42;98602.84;4993185;28;20109;-94
2021/04/04 10:32:40;;;;;;;2.95;1.35;;;;;;;21.14;20.14;98608.63;5058749;28;20029;-90
2021/04/04 10:35:09;;;;;;;2.10;1.00;;;;;;;22.91;17.80;98594.53;5060769;28;20097;-92
2021/04/04 10:37:36;;;;;;;0.95;0.80;;;;;;;23.68;16.13;98593.75;5066817;28;20370;-90
2021/04/04 10:40:08;;;;;;;3.67;1.00;;;;;;;24.23;15.54;98587.81;5063193;28;20040;-90
2021/04/04 10:42:36;;;;;;;1.23;0.80;;;;;;;24.09;16.39;98588.03;5055258;28;20044;-89
2021/04/04 10:45:07;;;;;;;1.88;1.30;;;;;;;23.30;17.57;98592.16;5061630;28;20108;-91
2021/04/04 10:47:33;;;;;;;1.98;0.95;;;;;;;19.72;19.85;98596.44;5065805;28;20065;-89
2021/04/04 10:50:03;;;;;;;1.02;0.90;;;;;;;20.66;19.71;98589.50;5056756;28;20457;-95
2021/04/04 10:52:30;;;;;;;2.67;1.30;;;;;;;19.70;20.09;98592.44;5072054;28;20108;-92
2021/04/04 10:54:58;;;;;;;1.92;1.10;;;;;;;20.02;19.83;98596.94;5062517;28;20029;-92
2021/04/04 10:57:26;;;;;;;1.27;0.95;;;;;;;20.33;18.75;98581.50;5073596;28;20036;-92
2021/04/04 10:59:54;;;;;;;1.80;0.82;;;;;;;20.74;20.18;98567.97;5045790;28;20040;-92
2021/04/04 11:02:20;;;;;;;2.72;1.42;;;;;;;21.56;18.44;98575.00;5052399;28;20040;-91
2021/04/04 11:04:47;;;;;;;2.88;1.52;;;;;;;22.86;17.08;98565.00;5056003;28;20035;-90
2021/04/04 11:07:13;;;;;;;2.47;1.10;;;;;;;23.87;16.42;98567.88;5036275;28;20040;-90
2021/04/04 11:09:39;;;;;;;2.97;1.88;;;;;;;21.19;18.67;98564.31;5066425;28;20106;-89
2021/04/04 11:12:06;;;;;;;3.05;1.35;;;;;;;21.38;18.29;98570.66;5030422;28;20052;-90
2021/04/04 11:14:34;;;;;;;25.08;11.77;;;;;;;22.47;18.15;98564.50;5077456;28;20043;-92
2021/04/04 11:17:02;;;;;;;2.17;1.50;;;;;;;22.36;17.43;98564.56;5091650;28;20028;-89
2021/04/04 11:19:30;;;;;;;2.42;1.45;;;;;;;23.78;17.14;98564.78;5093210;28;20024;-88
2021/04/04 11:22:00;;;;;;;2.30;1.10;;;;;;;23.09;16.97;98561.56;5095123;28;20085;-89
2021/04/04 11:24:26;;;;;;;2.42;1.20;;;;;;;24.25;15.54;98565.75;5090942;28;20084;-89
2021/04/04 11:26:56;;;;;;;2.15;1.58;;;;;;;24.72;15.36;98547.75;5092623;28;20128;-87
2021/04/04 11:29:24;;;;;;;3.17;1.33;;;;;;;24.64;15.21;98546.25;5092044;28;20036;-91
2021/04/04 11:31:56;;;;;;;3.63;1.50;;;;;;;23.43;16.07;98544.81;5093796;28;20426;-90
2021/04/04 11:34:34;;;;;;;2.10;0.90;;;;;;;24.26;15.46;98546.91;5091561;28;20028;-92
2021/04/04 11:37:03;;;;;;;1.95;1.05;;;;;;;25.31;15.24;98539.47;5089502;28;20028;-89
2021/04/04 11:39:30;;;;;;;1.75;0.82;;;;;;;24.81;15.29;98535.22;5087346;28;20368;-90
2021/04/04 11:42:03;;;;;;;1.80;1.00;;;;;;;25.84;15.10;98537.59;5087565;28;20036;-90
2021/04/04 11:44:41;;;;;;;3.50;1.23;;;;;;;24.87;14.08;98534.28;5080020;28;20084;-93
2021/04/04 11:47:16;;;;;;;4.00;1.60;;;;;;;23.65;15.45;98540.53;5083705;28;20111;-90
2021/04/04 11:49:49;;;;;;;2.80;1.30;;;;;;;23.43;16.52;98534.41;5085696;28;20028;-89
2021/04/04 11:52:18;;;;;;;1.75;1.00;;;;;;;25.05;15.99;98512.28;5083600;28;20028;-92
2021/04/04 11:54:44;;;;;;;1.95;1.13;;;;;;;24.98;15.66;98520.84;5074112;28;20483;-91
2021/04/04 11:57:34;;;;;;;1.95;1.33;;;;;;;24.51;15.52;98516.41;5087334;28;20035;-90